Terminal Aerodrome Forecast
Issued by NWS Grand Forks, ND

Home | Current Version | Previous Version | Graphics & Text | Print | Product List | Glossary On
Versions: 1 2 3 4 5 6 7 8 9 10 11 12 13 14
000
FTUS43 KFGF 262300
TAFFAR
TAF
KFAR 262335Z 2700/2724 27019G26KT P6SM BKN060
     FM270200 29015G21KT P6SM BKN040
     FM270600 30014KT P6SM BKN025
     FM271200 33015G24KT P6SM VCSH BKN025=

USA.gov is the U.S. government's official web portal to all federal, state and local government web resources and services.